Tiempo atmosférico en la estación meteorológica de Algarrobo, Málaga (80 m.)



Fecha
DESCASC
Temp. máxima en grados centígrados (hora)
DESCASC
Temp. mínima en grados centígrados (hora)
DESCASC
Temp. media en grados centígrados
DESCASC
Racha de viento máxima en m/sg (hora)
DESCASC
Velocidad máxima media en intervalos de 10 minutos(hora)
DESCASC
Precipitaciones diarias en mm
DESCASC
Precipitaciones de 00:00 a 06:00 en mm
DESCASC
Precipitaciones de 06:00 a 12:00 en mm
DESCASC
Precipitaciones de 12:00 a 18:00 en mm
DESCASC
Precipitaciones de 18:00 a 24:00 en mm
DESCASC
28-12-2020 17.5 (13:30) 9.5 (00:00) 13.5 18.06 (05:30) 11.67 (05:20) 0 0 0 0 0
29-12-2020 16.6 (14:30) 8 (00:00) 12.3 13.61 (13:50) 8.33 (13:40) 0 0 0 0 0
30-12-2020 17.5 (15:50) 4 (00:00) 10.8 7.78 (02:10) 4.72 (01:30) 0 0 0 0 0
31-12-2020 17.3 (14:50) 4.4 (00:00) 10.8 11.39 (15:50) 7.78 (19:30) 0 0 0 0 0
01-01-2021 14.4 (16:00) 6.7 (00:00) 10.5 15.83 (10:50) 9.72 (14:30) 0 0 0 0 0
02-01-2021 14.1 (14:10) 4.3 (00:00) 9.2 13.06 (12:00) 8.61 (12:00) 0 0 0 0 0
03-01-2021 16.1 (13:30) 2 (00:00) 9.1 10.28 (14:20) 6.67 (14:40) 0 0 0 0 0
04-01-2021 15.5 (13:30) 3 (00:00) 9.3 12.5 (15:40) 8.61 (15:40) 0 0 0 0 0
05-01-2021 15.3 (13:50) 5.7 (00:00) 10.5 7.22 (00:50) 4.44 (00:50) 0 0 0 0 0
06-01-2021 13.3 (13:50) 8.8 (00:00) 11.1 9.17 (13:40) 3.89 (13:30) 4.6 0 0 0 4.6
07-01-2021 11.2 (15:10) 8.3 (00:00) 9.8 4.72 (03:40) 2.78 (03:30) 26.6 2.8 6.2 7.4 10.2
08-01-2021 13.5 (17:00) 10 (00:00) 11.8 13.89 (22:40) 6.39 (22:30) 41.4 10.4 8.8 4 18.2
09-01-2021 14.4 (13:40) 8 (00:00) 11.2 11.11 (10:20) 6.39 (10:20) 3.6 0.2 0 0 3.4
10-01-2021 10 (16:50) 4.5 (07:40) 7.3 6.39 (04:40) 2.78 (14:10) 15.8 13.2 2.4 0.2 0
11-01-2021 14 (16:10) 6.1 (00:00) 10 7.22 (04:20) 4.17 (04:40) 3 2.8 0.2 0 0
12-01-2021 14.8 (15:50) 4.2 (00:00) 9.5 4.72 (16:10) 2.5 (13:00) 0 0 0 0 0
13-01-2021 15.2 (15:40) 4.4 (00:00) 9.8 5.28 (13:40) 3.33 (13:20) 0 0 0 0 0
14-01-2021 16.8 (16:30) 5.3 (08:40) 11 5.56 (13:40) 3.33 (12:50) 0 0 0 0 0
15-01-2021 16.8 (17:10) 5.5 (00:00) 11.1 5.28 (13:50) 2.78 (13:50) 0 0 0 0 0
16-01-2021 16.8 (13:20) 5.6 (00:00) 11.2 10.83 (14:40) 5 (14:40) 0 0 0 0 0
17-01-2021 16.2 (12:30) 6 (00:00) 11.1 4.17 (13:20) 2.22 (15:10) 0 0 0 0 0
18-01-2021 16.8 (13:30) 6.1 (00:00) 11.4 4.72 (16:00) 3.33 (16:00) 0 0 0 0 0
19-01-2021 16.4 (15:10) 7.3 (00:00) 11.8 4.72 (13:20) 2.78 (13:20) 0 0 0 0 0
20-01-2021 13.6 (15:20) 7.4 (00:00) 10.5 6.67 (05:20) 2.78 (05:20) 9.4 0 0 9.2 0.2
21-01-2021 17.9 (15:50) 8.5 (00:00) 13.2 7.78 (16:00) 4.17 (16:00) 0 0 0 0 0
22-01-2021 19.6 (14:50) 11.5 (00:00) 15.6 18.33 (14:30) 11.11 (14:30) 0.2 0 0.2 0 0
23-01-2021 18.9 (14:10) 11.8 (00:00) 15.3 13.89 (12:30) 8.61 (12:30) 0 0 0 0 0
24-01-2021 21.3 (15:20) 13.2 (00:00) 17.2 15 (13:30) 9.44 (13:10) 0 0 0 0 0
25-01-2021 19.9 (11:20) 12.8 (00:00) 16.3 10.83 (18:00) 7.22 (18:00) 0.4 0 0 0.4 0
26-01-2021 24 (15:00) 14.5 (00:00) 19.3 11.39 (15:40) 7.22 (16:10) 0 0 0 0 0

Gráficas

Temp. máximas Temp. mínimas Temp. medias Precipitaciones Rachas de viento máximas Velocidades máximas media en intervalos de 10 minutos

Datos horarios

Fecha y hora oficial Temperatura (ºC) Velocidad del viento (km/h) Dirección del viento Racha (km/h) Dirección de racha Precipitación (mm) Presión (hPa) Tendencia (hPa) Humedad (%)
2021-01-26 23:00:00 15.1 4 Norte 17 Noroeste 0 -- -- 83
2021-01-26 22:00:00 16.4 12 Noroeste 21 Noroeste 0 -- -- 81
2021-01-26 21:00:00 14.8 3 Nordeste 13 Sudeste 0 -- -- 83
2021-01-26 20:00:00 15.2 4 Norte 9 Norte 0 -- -- 79
2021-01-26 19:00:00 17.3 2 Oeste 21 Sudeste 0 -- -- 72
2021-01-26 18:00:00 19.7 15 Sudeste 35 Noroeste 0 -- -- 63
2021-01-26 17:00:00 22 24 Noroeste 40 Noroeste 0 -- -- 57
2021-01-26 16:00:00 23.8 20 Noroeste 41 Noroeste 0 -- -- 53
2021-01-26 15:00:00 24 13 Noroeste 31 Noroeste 0 -- -- 52
2021-01-26 14:00:00 23.7 16 Noroeste 28 Noroeste 0 -- -- 51
2021-01-26 13:00:00 22.8 25 Noroeste 39 Noroeste 0 -- -- 52
2021-01-26 12:00:00 21.7 14 Noroeste 34 Noroeste 0 -- -- 53
2021-01-26 11:00:00 20.7 20 Noroeste 34 Noroeste 0 -- -- 58
2021-01-26 10:00:00 18.3 19 Noroeste 29 Noroeste 0 -- -- 66
2021-01-26 09:00:00 15.9 6 Noroeste 26 Noroeste 0 -- -- 73
2021-01-26 08:00:00 16.4 13 Oeste 22 Norte 0 -- -- 70
2021-01-26 07:00:00 16.5 11 Noroeste 35 Noroeste 0 -- -- 70
2021-01-26 06:00:00 16.6 19 Noroeste 34 Noroeste 0 -- -- 70
2021-01-26 05:00:00 15.9 13 Oeste 36 Oeste 0 -- -- 75
2021-01-26 04:00:00 16.3 18 Noroeste 33 Oeste 0 -- -- 76
2021-01-26 03:00:00 16.2 18 Noroeste 33 Noroeste 0 -- -- 77
2021-01-26 02:00:00 16.1 20 Noroeste 29 Noroeste 0 -- -- 77
2021-01-26 01:00:00 16.3 19 Noroeste 31 Noroeste 0 -- -- 75
2021-01-26 00:00:00 16.2 13 Noroeste 21 Noroeste 0 -- -- 74
2021-01-25 23:00:00 16.2 8 Noroeste 19 Noroeste 0 -- -- 73
2021-01-25 22:00:00 17.4 10 Noroeste 28 Noroeste 0 -- -- 66
2021-01-25 21:00:00 16.9 4 Oeste 23 Noroeste 0 -- -- 69
2021-01-25 20:00:00 17.3 13 Noroeste 26 Noroeste 0 -- -- 70
2021-01-25 19:00:00 17.1 0 Calma 37 Noroeste 0 -- -- 77
2021-01-25 18:00:00 18.4 26 Noroeste 39 Noroeste 0 -- -- 71
2021-01-25 17:00:00 18.5 14 Sudoeste 32 Oeste 0 -- -- 77
2021-01-25 16:00:00 16.3 22 Sudoeste 36 Oeste 0 -- -- 87
2021-01-25 15:00:00 16.4 15 Sudoeste 32 Sudoeste 0 -- -- 85
2021-01-25 14:00:00 16.5 9 Oeste 24 Oeste 0.4 -- -- 85
2021-01-25 13:00:00 16.1 13 Sudoeste 26 Sudoeste 0 -- -- 81
2021-01-25 12:00:00 17.4 12 Oeste 32 Norte 0 -- -- 69
2021-01-25 11:00:00 18.7 24 Noroeste 38 Noroeste 0 -- -- 63
2021-01-25 10:00:00 17.1 20 Noroeste 36 Noroeste 0 -- -- 66
2021-01-25 09:00:00 14.9 8 Noroeste 28 Norte 0 -- -- 74
2021-01-25 08:00:00 15.2 14 Noroeste 27 Noroeste 0 -- -- 72
2021-01-25 07:00:00 14.4 12 Noroeste 21 Noroeste 0 -- -- 72
2021-01-25 06:00:00 15.1 19 Noroeste 30 Noroeste 0 -- -- 67
2021-01-25 05:00:00 14.9 17 Noroeste 31 Noroeste 0 -- -- 67
2021-01-25 04:00:00 15 22 Noroeste 34 Noroeste 0 -- -- 65
2021-01-25 03:00:00 12.8 6 Norte 20 Noroeste 0 -- -- 73
2021-01-25 02:00:00 13 4 Nordeste 9 Este 0 -- -- 73
2021-01-25 01:00:00 13.2 3 Norte 15 Noroeste 0 -- -- 71
2021-01-25 00:00:00 15 5 Norte 17 Nordeste 0 -- -- 64
2021-01-24 23:00:00 15.7 7 Noroeste 26 Oeste 0 -- -- 62
2021-01-24 22:00:00 15.8 13 Noroeste 21 Noroeste 0 -- -- 64
2021-01-24 21:00:00 15.6 5 Oeste 19 Noroeste 0 -- -- 65
2021-01-24 20:00:00 15.7 9 Noroeste 16 Noroeste 0 -- -- 65
2021-01-24 19:00:00 16.7 12 Noroeste 20 Noroeste 0 -- -- 59
2021-01-24 18:00:00 17.6 11 Noroeste 26 Noroeste 0 -- -- 57
2021-01-24 17:00:00 18.7 16 Noroeste 31 Oeste 0 -- -- 54
2021-01-24 16:00:00 20.1 18 Noroeste 35 Oeste 0 -- -- 50
2021-01-24 15:00:00 20.8 21 Noroeste 44 Noroeste 0 -- -- 48
2021-01-24 14:00:00 20.8 29 Noroeste 54 Noroeste 0 -- -- 48
2021-01-24 13:00:00 20.6 30 Noroeste 46 Noroeste 0 -- -- 58
2021-01-24 12:00:00 18.4 14 Oeste 28 Oeste 0 -- -- 74
2021-01-24 11:00:00 16.8 9 Oeste 23 Oeste 0 -- -- 82
2021-01-24 10:00:00 15.6 12 Oeste 27 Oeste 0 -- -- 86
2021-01-24 09:00:00 14.9 10 Noroeste 22 Oeste 0 -- -- 89
2021-01-24 08:00:00 14.7 11 Oeste 27 Oeste 0 -- -- 90
2021-01-24 07:00:00 14.6 10 Oeste 28 Oeste 0 -- -- 88
2021-01-24 06:00:00 14.5 8 Oeste 18 Oeste 0 -- -- 88
2021-01-24 05:00:00 14.2 8 Noroeste 15 Noroeste 0 -- -- 87
2021-01-24 04:00:00 13.7 7 Noroeste 12 Noroeste 0 -- -- 90
2021-01-24 03:00:00 13.3 3 Norte 6 Norte 0 -- -- 89
2021-01-24 02:00:00 13.4 3 Norte 10 Norte 0 -- -- 86
2021-01-24 01:00:00 14.2 8 Noroeste 20 Noroeste 0 -- -- 81
2021-01-24 00:00:00 14.1 12 Oeste 26 Oeste 0 -- -- 84
2021-01-23 23:00:00 14.6 14 Oeste 26 Oeste 0 -- -- 77
2021-01-23 22:00:00 14.8 9 Oeste 25 Oeste 0 -- -- 75
2021-01-23 21:00:00 15.1 8 Noroeste 22 Oeste 0 -- -- 73
2021-01-23 20:00:00 15.1 12 Oeste 24 Oeste 0 -- -- 77
2021-01-23 19:00:00 15.4 8 Oeste 28 Oeste 0 -- -- 76
2021-01-23 18:00:00 15.5 11 Oeste 25 Oeste 0 -- -- 76
2021-01-23 17:00:00 16.1 10 Oeste 26 Oeste 0 -- -- 72
2021-01-23 16:00:00 17.1 14 Noroeste 36 Noroeste 0 -- -- 55
2021-01-23 15:00:00 17.4 17 Noroeste 46 Noroeste 0 -- -- 54
2021-01-23 14:00:00 18.5 30 Noroeste 46 Noroeste 0 -- -- 49
2021-01-23 13:00:00 17.9 29 Noroeste 50 Oeste 0 -- -- 47
2021-01-23 12:00:00 17.5 25 Noroeste 47 Noroeste 0 -- -- 49
2021-01-23 11:00:00 15.9 25 Noroeste 42 Noroeste 0 -- -- 49
2021-01-23 10:00:00 14.5 19 Noroeste 35 Noroeste 0 -- -- 54
2021-01-23 09:00:00 13.3 20 Noroeste 48 Noroeste 0 -- -- 56
2021-01-23 08:00:00 13.1 30 Noroeste 42 Noroeste 0 -- -- 60
2021-01-23 07:00:00 12 14 Noroeste 30 Noroeste 0 -- -- 70
2021-01-23 06:00:00 12.3 14 Noroeste 21 Noroeste 0 -- -- 68
2021-01-23 05:00:00 12.4 11 Noroeste 26 Noroeste 0 -- -- 70
2021-01-23 04:00:00 12.9 14 Noroeste 24 Noroeste 0 -- -- 69
2021-01-23 03:00:00 12.5 14 Norte 26 Norte 0 -- -- 69
2021-01-23 02:00:00 12.7 13 Noroeste 27 Noroeste 0 -- -- 69
2021-01-23 01:00:00 13.4 17 Noroeste 30 Noroeste 0 -- -- 66
2021-01-23 00:00:00 13.7 17 Noroeste 33 Noroeste 0 -- -- 64
2021-01-22 23:00:00 13.7 15 Noroeste 24 Noroeste 0 -- -- 63
2021-01-22 22:00:00 14.6 9 Noroeste 30 Noroeste 0 -- -- 61
2021-01-22 21:00:00 15.4 23 Noroeste 41 Noroeste 0 -- -- 57
2021-01-22 20:00:00 15.8 27 Noroeste 44 Noroeste 0 -- -- 54
2021-01-22 19:00:00 15.9 20 Noroeste 48 Noroeste 0 -- -- 53
2021-01-22 18:00:00 17.1 29 Noroeste 56 Noroeste 0 -- -- 51
2021-01-22 17:00:00 18.3 23 Noroeste 51 Noroeste 0 -- -- 47
2021-01-22 16:00:00 19.1 33 Noroeste 58 Norte 0 -- -- 43
2021-01-22 15:00:00 19.3 35 Noroeste 66 Norte 0 -- -- 39
2021-01-22 14:00:00 19.2 34 Norte 61 Norte 0 -- -- 45
2021-01-22 13:00:00 18.9 37 Norte 60 Norte 0 -- -- 46
2021-01-22 12:00:00 19.4 33 Noroeste 57 Norte 0 -- -- 52
2021-01-22 11:00:00 18.7 33 Noroeste 56 Norte 0 -- -- 53
2021-01-22 10:00:00 17.9 34 Noroeste 55 Norte 0.2 -- -- 58
2021-01-22 09:00:00 12.4 5 Noroeste 14 Sudoeste 0 -- -- 91
2021-01-22 08:00:00 12 3 Norte 8 Norte 0 -- -- 89
2021-01-22 07:00:00 13.7 8 Noroeste 14 Noroeste 0 -- -- 88
2021-01-22 06:00:00 14.5 5 Norte 16 Noroeste 0 -- -- 89
2021-01-22 05:00:00 14.8 4 Oeste 18 Noroeste 0 -- -- 85
2021-01-22 04:00:00 13.9 8 Norte 21 Noroeste 0 -- -- 85
2021-01-22 03:00:00 11.5 5 Norte 12 Norte 0 -- -- 88
2021-01-22 02:00:00 12 7 Norte 10 Norte 0 -- -- 87
2021-01-22 01:00:00 11.5 5 Norte 8 Norte 0 -- -- 90
2021-01-22 00:00:00 11.7 5 Norte 12 Norte 0 -- -- 91
2021-01-21 23:00:00 11.7 5 Norte 9 Norte 0 -- -- 91
2021-01-21 22:00:00 12.3 2 Nordeste 11 Norte 0 -- -- 90
2021-01-21 21:00:00 12.7 3 Norte 8 Norte 0 -- -- 88
2021-01-21 20:00:00 14.5 4 Norte 17 Noroeste 0 -- -- 80
2021-01-21 19:00:00 15.8 5 Oeste 14 Noroeste 0 -- -- 76
2021-01-21 18:00:00 16.6 8 Noroeste 20 Oeste 0 -- -- 73
2021-01-21 17:00:00 16.9 4 Oeste 22 Oeste 0 -- -- 76
2021-01-21 16:00:00 16.7 15 Sudoeste 28 Sudoeste 0 -- -- 77
2021-01-21 15:00:00 16.4 14 Sudoeste 22 Sudoeste 0 -- -- 80
2021-01-21 14:00:00 15.8 9 Sudoeste 21 Sudoeste 0 -- -- 74
2021-01-21 13:00:00 16.5 8 Sudoeste 21 Sudoeste 0 -- -- 69
2021-01-21 12:00:00 16.5 12 Oeste 20 Oeste 0 -- -- 70
2021-01-21 11:00:00 15.7 5 Oeste 11 Sudoeste 0 -- -- 74
2021-01-21 10:00:00 12.1 3 Norte 7 Norte 0 -- -- 90
2021-01-21 09:00:00 9.6 3 Norte 13 Norte 0 -- -- 89
2021-01-21 08:00:00 10.6 5 Norte 12 Norte 0 -- -- 87
2021-01-21 07:00:00 9.1 4 Norte 16 Noroeste 0 -- -- 89
2021-01-21 06:00:00 11.2 7 Norte 23 Noroeste 0 -- -- 82
2021-01-21 05:00:00 10.7 13 Norte 19 Norte 0 -- -- 86
2021-01-21 04:00:00 10.5 9 Norte 18 Norte 0 -- -- 87
2021-01-21 03:00:00 9.1 9 Norte 15 Noroeste 0 -- -- 97
2021-01-21 02:00:00 8.8 6 Norte 14 Noroeste 0 -- -- 96
2021-01-21 01:00:00 10 9 Noroeste 17 Noroeste 0 -- -- 96
2021-01-21 00:00:00 10.5 6 Noroeste 12 Noroeste 0 -- -- 95
2021-01-20 23:00:00 11.3 3 Nordeste 5 Norte 0 -- -- 96
2021-01-20 22:00:00 11.8 3 Norte 8 Noroeste 0 -- -- 96
2021-01-20 21:00:00 11.8 5 Norte 8 Este 0 -- -- 95
2021-01-20 20:00:00 11.9 2 Nordeste 9 Sudeste 0 -- -- 94
2021-01-20 19:00:00 12 3 Este 8 Este 0.2 -- -- 94
2021-01-20 18:00:00 12.4 3 Este 10 Sudeste 3.2 -- -- 94
2021-01-20 17:00:00 12.6 0 Calma 11 Nordeste 2.8 -- -- 92
2021-01-20 16:00:00 13 3 Nordeste 10 Norte 1.2 -- -- 90
2021-01-20 15:00:00 13.3 3 Norte 10 Norte 0.8 -- -- 91
2021-01-20 14:00:00 12.8 2 Norte 11 Norte 0.8 -- -- 90
2021-01-20 13:00:00 12.7 3 Norte 8 Norte 0.4 -- -- 88
2021-01-20 12:00:00 13.2 2 Norte 8 Norte 0 -- -- 83
2021-01-20 11:00:00 12.3 4 Norte 8 Norte 0 -- -- 82
2021-01-20 10:00:00 11.7 4 Norte 11 Norte 0 -- -- 81
2021-01-20 09:00:00 11 5 Nordeste 11 Nordeste 0 -- -- 80
2021-01-20 08:00:00 10.7 6 Norte 14 Nordeste 0 -- -- 77
2021-01-20 07:00:00 10.1 6 Nordeste 16 Norte 0 -- -- 78
2021-01-20 06:00:00 10.1 4 Nordeste 24 Noroeste 0 -- -- 78
2021-01-20 05:00:00 8.4 5 Norte 13 Norte 0 -- -- 77
2021-01-20 04:00:00 7.4 4 Norte 13 Norte 0 -- -- 83
2021-01-20 03:00:00 7.9 5 Nordeste 13 Norte 0 -- -- 90
2021-01-20 02:00:00 7.6 6 Norte 11 Norte 0 -- -- 93
2021-01-20 01:00:00 7.5 5 Norte 9 Norte 0 -- -- 94
2021-01-20 00:00:00 7.8 5 Norte 11 Nordeste 0 -- -- 93
2021-01-19 23:00:00 8 5 Norte 9 Nordeste 0 -- -- 93
2021-01-19 22:00:00 8.5 4 Norte 7 Norte 0 -- -- 94
2021-01-19 21:00:00 9.1 5 Norte 6 Norte 0 -- -- 92
2021-01-19 20:00:00 9.7 2 Nordeste 5 Nordeste 0 -- -- 89
2021-01-19 19:00:00 11.8 0 Calma 5 Sudoeste 0 -- -- 81
2021-01-19 18:00:00 14.6 4 Sur 8 Sudoeste 0 -- -- 74
2021-01-19 17:00:00 15.2 4 Sudoeste 13 Oeste 0 -- -- 72
2021-01-19 16:00:00 15.8 8 Sudoeste 12 Sudoeste 0 -- -- 72
2021-01-19 15:00:00 16.1 8 Sudoeste 14 Sudoeste 0 -- -- 70
2021-01-19 14:00:00 15.8 6 Sudoeste 17 Sudoeste 0 -- -- 72
2021-01-19 13:00:00 16.3 6 Sur 13 Sur 0 -- -- 71
2021-01-19 12:00:00 16 6 Sur 12 Sur 0 -- -- 70
2021-01-19 11:00:00 14.3 2 Norte 7 Norte 0 -- -- 68
2021-01-19 10:00:00 9.7 5 Norte 10 Norte 0 -- -- 76
2021-01-19 09:00:00 7.5 6 Norte 11 Norte 0 -- -- 79
2021-01-19 08:00:00 7.5 8 Norte 11 Norte 0 -- -- 79
2021-01-19 07:00:00 7.5 7 Norte 11 Norte 0 -- -- 81
2021-01-19 06:00:00 7.8 9 Norte 12 Norte 0 -- -- 79
2021-01-19 05:00:00 7.8 7 Norte 12 Norte 0 -- -- 83
2021-01-19 04:00:00 8.2 4 Norte 10 Norte 0 -- -- 86
2021-01-19 03:00:00 8 4 Norte 9 Norte 0 -- -- 86
2021-01-19 02:00:00 8.1 5 Norte 9 Norte 0 -- -- 90
2021-01-19 01:00:00 8.2 6 Norte 9 Norte 0 -- -- 88
2021-01-19 00:00:00 8.2 4 Norte 8 Norte 0 -- -- 85
2021-01-18 23:00:00 8.1 5 Norte 9 Norte 0 -- -- 81
2021-01-18 22:00:00 8.2 4 Norte 8 Nordeste 0 -- -- 81
2021-01-18 21:00:00 9.4 3 Nordeste 7 Norte 0 -- -- 76
2021-01-18 20:00:00 9.4 4 Norte 6 Norte 0 -- -- 77
2021-01-18 19:00:00 12.4 3 Nordeste 6 Sur 0 -- -- 79
2021-01-18 18:00:00 15.9 3 Sur 10 Sur 0 -- -- 69
2021-01-18 17:00:00 16.6 7 Sur 17 Sudeste 0 -- -- 69
2021-01-18 16:00:00 16.4 12 Sur 17 Sur 0 -- -- 70
2021-01-18 15:00:00 16.5 8 Sur 14 Sur 0 -- -- 68
2021-01-18 14:00:00 16.8 9 Sur 14 Sur 0 -- -- 67
2021-01-18 13:00:00 16.2 8 Sur 13 Sudoeste 0 -- -- 72
2021-01-18 12:00:00 15.9 8 Sur 11 Sur 0 -- -- 71
2021-01-18 11:00:00 14.1 5 Sur 6 Sur 0 -- -- 72
2021-01-18 10:00:00 9 3 Norte 6 Norte 0 -- -- 97
2021-01-18 09:00:00 6.6 3 Norte 6 Norte 0 -- -- 95
2021-01-18 08:00:00 6.8 2 Norte 8 Norte 0 -- -- 92
2021-01-18 07:00:00 7.2 4 Norte 9 Norte 0 -- -- 92
2021-01-18 06:00:00 6.3 4 Nordeste 7 Norte 0 -- -- 91
2021-01-18 05:00:00 6.2 3 Norte 6 Noroeste 0 -- -- 86
2021-01-18 04:00:00 6.5 0 Calma 4 Norte 0 -- -- 85
2021-01-18 03:00:00 7.9 2 Sur 11 Norte 0 -- -- 78
2021-01-18 02:00:00 8.3 7 Norte 14 Norte 0 -- -- 77
2021-01-18 01:00:00 8.3 7 Norte 12 Norte 0 -- -- 83
2021-01-18 00:00:00 8.7 6 Norte 10 Norte 0 -- -- 90
2021-01-17 23:00:00 8.9 5 Norte 9 Norte 0 -- -- 93
2021-01-17 22:00:00 9.2 5 Norte 9 Norte 0 -- -- 94
2021-01-17 21:00:00 9 3 Norte 6 Norte 0 -- -- 92
2021-01-17 20:00:00 9.5 0 Calma 5 Nordeste 0 -- -- 88
2021-01-17 19:00:00 11 3 Norte 4 Norte 0 -- -- 82
2021-01-17 18:00:00 14.2 2 Sudoeste 7 Sudoeste 0 -- -- 72
2021-01-17 17:00:00 15.3 3 Sudoeste 9 Sudoeste 0 -- -- 66
2021-01-17 16:00:00 15.6 5 Sudoeste 12 Sudoeste 0 -- -- 62
2021-01-17 15:00:00 15.8 8 Sudoeste 13 Sudoeste 0 -- -- 65
2021-01-17 14:00:00 15.5 7 Sudoeste 15 Sudoeste 0 -- -- 68
2021-01-17 13:00:00 16.2 8 Sudoeste 13 Sudoeste 0 -- -- 61
2021-01-17 12:00:00 16 4 Sudoeste 8 Sudoeste 0 -- -- 60
2021-01-17 11:00:00 14 0 Calma 5 Norte 0 -- -- 66
2021-01-17 10:00:00 9.2 3 Norte 9 Norte 0 -- -- 74
2021-01-17 09:00:00 6.2 6 Norte 10 Norte 0 -- -- 88
2021-01-17 08:00:00 6 7 Norte 10 Norte 0 -- -- 88
2021-01-17 07:00:00 6.2 5 Norte 8 Norte 0 -- -- 88
2021-01-17 06:00:00 6.5 4 Norte 7 Norte 0 -- -- 87
2021-01-17 05:00:00 6.9 4 Norte 9 Norte 0 -- -- 85
2021-01-17 04:00:00 6.4 4 Norte 10 Norte 0 -- -- 82
2021-01-17 03:00:00 7.2 7 Norte 10 Norte 0 -- -- 82
2021-01-17 02:00:00 7.3 6 Norte 9 Norte 0 -- -- 84
2021-01-17 01:00:00 7.5 5 Norte 9 Norte 0 -- -- 85
2021-01-17 00:00:00 8 6 Norte 10 Norte 0 -- -- 85
2021-01-16 23:00:00 8.3 4 Norte 9 Nordeste 0 -- -- 81
2021-01-16 22:00:00 8.8 4 Norte 9 Norte 0 -- -- 76
2021-01-16 21:00:00 11 4 Este 9 Este 0 -- -- 64
2021-01-16 20:00:00 13.2 2 Este 11 Este 0 -- -- 60
2021-01-16 19:00:00 13.6 5 Este 18 Sudeste 0 -- -- 57
2021-01-16 18:00:00 14.6 8 Sudeste 30 Sudeste 0 -- -- 60
2021-01-16 17:00:00 15.2 15 Sudeste 32 Sudeste 0 -- -- 63
2021-01-16 16:00:00 16.1 15 Sudeste 31 Sudeste 0 -- -- 71
2021-01-16 15:00:00 16.4 13 Sudeste 39 Sudeste 0 -- -- 64
2021-01-16 14:00:00 16.7 15 Sudeste 30 Sur 0 -- -- 54
2021-01-16 13:00:00 16.4 13 Sur 23 Sur 0 -- -- 56
2021-01-16 12:00:00 16 7 Sur 13 Sur 0 -- -- 63
2021-01-16 11:00:00 14 4 Sur 7 Sudoeste 0 -- -- 67
2021-01-16 10:00:00 9.1 4 Norte 9 Norte 0 -- -- 80
2021-01-16 09:00:00 6.6 5 Nordeste 10 Norte 0 -- -- 84
2021-01-16 08:00:00 6.2 5 Norte 11 Norte 0 -- -- 75
2021-01-16 07:00:00 6 4 Nordeste 13 Norte 0 -- -- 83
2021-01-16 06:00:00 6.1 5 Nordeste 13 Norte 0 -- -- 80
2021-01-16 05:00:00 5.7 4 Norte 11 Nordeste 0 -- -- 77
2021-01-16 04:00:00 6.2 5 Norte 12 Norte 0 -- -- 75
2021-01-16 03:00:00 6.6 4 Nordeste 9 Norte 0 -- -- 75
2021-01-16 02:00:00 7.1 4 Nordeste 11 Norte 0 -- -- 71
2021-01-16 01:00:00 6.9 6 Norte 12 Nordeste 0 -- -- 76
2021-01-16 00:00:00 7.2 4 Nordeste 8 Norte 0 -- -- 82
2021-01-15 23:00:00 7.8 4 Norte 9 Norte 0 -- -- 80
2021-01-15 22:00:00 7.5 3 Norte 11 Norte 0 -- -- 84
2021-01-15 21:00:00 8.4 4 Nordeste 10 Norte 0 -- -- 82
2021-01-15 20:00:00 9.5 4 Norte 7 Norte 0 -- -- 81
2021-01-15 19:00:00 11.4 4 Norte 8 Este 0 -- -- 71
2021-01-15 18:00:00 15.9 4 Este 8 Sudoeste 0 -- -- 51
2021-01-15 17:00:00 16.7 4 Sur 9 Sudoeste 0 -- -- 49
2021-01-15 16:00:00 16.2 5 Sudoeste 12 Sur 0 -- -- 57
2021-01-15 15:00:00 16 5 Sudoeste 14 Sur 0 -- -- 63
2021-01-15 14:00:00 15.8 9 Sudoeste 19 Sudoeste 0 -- -- 58
2021-01-15 13:00:00 15.7 9 Sur 13 Sur 0 -- -- 55
2021-01-15 12:00:00 14.9 5 Sudoeste 10 Sudoeste 0 -- -- 60
2021-01-15 11:00:00 14.4 0 Calma 5 Norte 0 -- -- 51
2021-01-15 10:00:00 8.9 3 Norte 9 Norte 0 -- -- 75
2021-01-15 09:00:00 5.6 0 Calma 7 Norte 0 -- -- 83
2021-01-15 08:00:00 6.9 5 Norte 8 Norte 0 -- -- 70
2021-01-15 07:00:00 6 5 Norte 10 Norte 0 -- -- 79
2021-01-15 06:00:00 6.4 4 Norte 9 Norte 0 -- -- 78
2021-01-15 05:00:00 6.3 5 Norte 8 Norte 0 -- -- 81
2021-01-15 04:00:00 6.5 4 Norte 8 Norte 0 -- -- 74
2021-01-15 03:00:00 6.8 5 Nordeste 10 Norte 0 -- -- 72
2021-01-15 02:00:00 7.4 0 Calma 8 Nordeste 0 -- -- 74
2021-01-15 01:00:00 7.1 3 Norte 7 Este 0 -- -- 76
2021-01-15 00:00:00 7.2 4 Norte 10 Norte 0 -- -- 75
2021-01-14 23:00:00 7.7 3 Nordeste 10 Norte 0 -- -- 71
2021-01-14 22:00:00 8.5 6 Norte 9 Norte 0 -- -- 70
2021-01-14 21:00:00 9.3 4 Norte 9 Norte 0 -- -- 70
2021-01-14 20:00:00 9.5 4 Norte 10 Norte 0 -- -- 73
2021-01-14 19:00:00 11.5 3 Norte 5 Norte 0 -- -- 65
2021-01-14 18:00:00 16.3 0 Calma 12 Sudeste 0 -- -- 48
2021-01-14 17:00:00 16.7 8 Sudeste 18 Sudeste 0 -- -- 41
2021-01-14 16:00:00 16.7 8 Sudeste 17 Sudeste 0 -- -- 48
2021-01-14 15:00:00 16.5 9 Sudeste 17 Sudeste 0 -- -- 57
2021-01-14 14:00:00 15.7 11 Sur 20 Sudeste 0 -- -- 55
2021-01-14 13:00:00 15.1 11 Sur 18 Sudeste 0 -- -- 64
2021-01-14 12:00:00 15.1 7 Sur 12 Sur 0 -- -- 60
2021-01-14 11:00:00 13.3 5 Sur 6 Sudoeste 0 -- -- 61
2021-01-14 10:00:00 8.7 4 Norte 9 Norte 0 -- -- 79
2021-01-14 09:00:00 5.6 4 Norte 8 Norte 0 -- -- 87
2021-01-14 08:00:00 6.2 6 Nordeste 12 Norte 0 -- -- 82
2021-01-14 07:00:00 5.8 4 Norte 9 Norte 0 -- -- 83
2021-01-14 06:00:00 6 5 Norte 9 Norte 0 -- -- 82
2021-01-14 05:00:00 6.1 4 Norte 8 Norte 0 -- -- 82
2021-01-14 04:00:00 5.7 4 Norte 8 Norte 0 -- -- 86
2021-01-14 03:00:00 6.3 5 Nordeste 9 Norte 0 -- -- 83
2021-01-14 02:00:00 6.3 5 Norte 10 Norte 0 -- -- 83
2021-01-14 01:00:00 6.2 5 Norte 10 Norte 0 -- -- 84
2021-01-14 00:00:00 6.4 5 Norte 11 Norte 0 -- -- 83
2021-01-13 23:00:00 6.5 7 Norte 10 Norte 0 -- -- 83
2021-01-13 22:00:00 7.1 4 Norte 10 Norte 0 -- -- 81
2021-01-13 21:00:00 7.8 6 Norte 10 Norte 0 -- -- 83
2021-01-13 20:00:00 8.3 5 Norte 8 Norte 0 -- -- 83
2021-01-13 19:00:00 10.2 3 Nordeste 5 Norte 0 -- -- 73
2021-01-13 18:00:00 14.5 2 Sudoeste 8 Sudoeste 0 -- -- 58
2021-01-13 17:00:00 15.2 4 Sur 13 Sur 0 -- -- 59
2021-01-13 16:00:00 15.2 7 Sudoeste 15 Sudoeste 0 -- -- 60
2021-01-13 15:00:00 14.7 8 Sudoeste 14 Sudoeste 0 -- -- 64
2021-01-13 14:00:00 14.4 7 Sudoeste 19 Sudoeste 0 -- -- 64
2021-01-13 13:00:00 14.8 6 Sudoeste 14 Sudoeste 0 -- -- 55
2021-01-13 12:00:00 14.2 6 Oeste 12 Sudoeste 0 -- -- 53
2021-01-13 11:00:00 12.6 0 Calma 9 Norte 0 -- -- 54
2021-01-13 10:00:00 8.3 7 Norte 10 Norte 0 -- -- 68
2021-01-13 09:00:00 5.6 5 Norte 10 Norte 0 -- -- 76
2021-01-13 08:00:00 5.3 6 Norte 10 Norte 0 -- -- 76
2021-01-13 07:00:00 5.2 6 Norte 13 Nordeste 0 -- -- 77
2021-01-13 06:00:00 5.3 6 Nordeste 15 Nordeste 0 -- -- 77
2021-01-13 05:00:00 5.6 6 Norte 10 Norte 0 -- -- 76
2021-01-13 04:00:00 5.3 6 Norte 12 Norte 0 -- -- 82
2021-01-13 03:00:00 5.3 5 Norte 10 Nordeste 0 -- -- 84
2021-01-13 02:00:00 5.4 4 Nordeste 9 Norte 0 -- -- 88
2021-01-13 01:00:00 6.2 4 Norte 12 Norte 0 -- -- 82
2021-01-13 00:00:00 6.6 6 Norte 9 Norte 0 -- -- 79
2021-01-12 23:00:00 7.5 5 Norte 9 Norte 0 -- -- 80
2021-01-12 22:00:00 7.7 5 Norte 11 Nordeste 0 -- -- 81
2021-01-12 21:00:00 7.9 5 Norte 10 Nordeste 0 -- -- 83
2021-01-12 20:00:00 7.8 5 Norte 7 Norte 0 -- -- 83
2021-01-12 19:00:00 9.4 2 Norte 4 Norte 0 -- -- 76
2021-01-12 18:00:00 13.8 2 Oeste 10 Oeste 0 -- -- 58
2021-01-12 17:00:00 14.5 6 Sudoeste 17 Sudoeste 0 -- -- 55
2021-01-12 16:00:00 14.6 7 Oeste 13 Sudoeste 0 -- -- 52
2021-01-12 15:00:00 14.2 5 Sudoeste 13 Sudoeste 0 -- -- 50
2021-01-12 14:00:00 14.1 7 Sudoeste 12 Sur 0 -- -- 59
2021-01-12 13:00:00 13.8 9 Sudoeste 12 Sudoeste 0 -- -- 62
2021-01-12 12:00:00 13.4 7 Sur 12 Sur 0 -- -- 64
2021-01-12 11:00:00 11.5 3 Sudoeste 5 Norte 0 -- -- 65
2021-01-12 10:00:00 6.9 2 Norte 11 Norte 0 -- -- 91
2021-01-12 09:00:00 5 6 Norte 13 Norte 0 -- -- 82
2021-01-12 08:00:00 4.4 5 Norte 9 Norte 0 -- -- 91
2021-01-12 07:00:00 4.2 4 Norte 10 Norte 0 -- -- 90
2021-01-12 06:00:00 4.7 6 Norte 9 Norte 0 -- -- 89
2021-01-12 05:00:00 4.8 3 Norte 8 Norte 0 -- -- 91
2021-01-12 04:00:00 5.3 4 Norte 9 Norte 0 -- -- 89
2021-01-12 03:00:00 5.1 4 Norte 9 Norte 0 -- -- 90
2021-01-12 02:00:00 5.7 5 Norte 11 Nordeste 0 -- -- 87
2021-01-12 01:00:00 6.2 6 Norte 10 Norte 0 -- -- 86
2021-01-12 00:00:00 7.1 6 Norte 12 Noroeste 0 -- -- 85
2021-01-11 23:00:00 7.7 6 Norte 11 Norte 0 -- -- 87
2021-01-11 22:00:00 7.7 4 Norte 10 Norte 0 -- -- 88
2021-01-11 21:00:00 9.4 4 Norte 6 Norte 0 -- -- 85
2021-01-11 20:00:00 9.5 3 Norte 5 Norte 0 -- -- 85
2021-01-11 19:00:00 10.1 3 Norte 6 Sudoeste 0 -- -- 81
2021-01-11 18:00:00 12.2 3 Sudoeste 12 Sudoeste 0 -- -- 71
2021-01-11 17:00:00 13.6 7 Sudoeste 14 Sudoeste 0 -- -- 67
2021-01-11 16:00:00 13.8 7 Sudoeste 17 Sudeste 0 -- -- 65
2021-01-11 15:00:00 13.3 11 Sur 17 Sur 0 -- -- 69
2021-01-11 14:00:00 12.6 8 Sur 15 Sudoeste 0 -- -- 69
2021-01-11 13:00:00 13.8 6 Oeste 17 Sudoeste 0 -- -- 55
2021-01-11 12:00:00 12 4 Oeste 7 Oeste 0 -- -- 66
2021-01-11 11:00:00 10 5 Norte 11 Norte 0 -- -- 80
2021-01-11 10:00:00 7.5 4 Norte 12 Norte 0 -- -- 92
2021-01-11 09:00:00 6.6 3 Norte 10 Norte 0.2 -- -- 94
2021-01-11 08:00:00 6.1 2 Norte 8 Norte 0 -- -- 95
2021-01-11 07:00:00 6.4 3 Norte 6 Norte 0 -- -- 94
2021-01-11 06:00:00 7 3 Norte 5 Norte 0.2 -- -- 93
2021-01-11 05:00:00 7.6 5 Sur 26 Sudeste 2.6 -- -- 90
2021-01-11 04:00:00 7.1 0 Calma 6 Sur 0 -- -- 88
2021-01-11 03:00:00 7 2 Norte 10 Norte 0 -- -- 85
2021-01-11 02:00:00 7.4 4 Norte 8 Norte 0 -- -- 85
2021-01-11 01:00:00 7.4 6 Norte 9 Noroeste 0 -- -- 84
2021-01-11 00:00:00 7.5 4 Norte 12 Noroeste 0 -- -- 84
2021-01-10 23:00:00 7.3 4 Norte 9 Norte 0 -- -- 85
2021-01-10 22:00:00 6.8 5 Norte 8 Norte 0 -- -- 88
2021-01-10 21:00:00 6.8 4 Norte 9 Norte 0 -- -- 87
2021-01-10 20:00:00 6.7 4 Norte 6 Norte 0 -- -- 90
2021-01-10 19:00:00 7.4 3 Nordeste 8 Norte 0 -- -- 89
2021-01-10 18:00:00 8.7 3 Norte 8 Noroeste 0 -- -- 85
2021-01-10 17:00:00 10 2 Noroeste 12 Nordeste 0 -- -- 72
2021-01-10 16:00:00 9.7 6 Este 14 Este 0 -- -- 71
2021-01-10 15:00:00 9 2 Sudeste 21 Sudeste 0 -- -- 80
2021-01-10 14:00:00 9.4 5 Este 14 Sudeste 0.2 -- -- 78
2021-01-10 13:00:00 9.1 4 Sudeste 15 Sudeste 0 -- -- 78
2021-01-10 12:00:00 9.1 2 Este 12 Nordeste 0 -- -- 77
2021-01-10 11:00:00 7.9 3 Norte 5 Norte 0.2 -- -- 93
2021-01-10 10:00:00 6.3 2 Nordeste 16 Sur 2.2 -- -- 94
2021-01-10 09:00:00 5.3 0 Calma 8 Norte 0 -- -- 93
2021-01-10 08:00:00 4.5 3 Norte 8 Norte 0 -- -- 93
2021-01-10 07:00:00 5 4 Nordeste 9 Norte 0 -- -- 91
2021-01-10 06:00:00 5.8 4 Nordeste 16 Este 1 -- -- 91
2021-01-10 05:00:00 6.2 5 Nordeste 23 Sudoeste 4 -- -- 91
2021-01-10 04:00:00 6.7 4 Nordeste 10 Nordeste 0.2 -- -- 93
2021-01-10 03:00:00 6.5 4 Norte 9 Nordeste 0 -- -- 92
2021-01-10 02:00:00 6.8 4 Nordeste 16 Norte 0 -- -- 91
2021-01-10 01:00:00 7.3 5 Nordeste 21 Oeste 8 -- -- 91
2021-01-10 00:00:00 8 6 Sudeste 15 Sudoeste 1.6 -- -- 89
2021-01-09 23:00:00 8.8 3 Nordeste 12 Este 0.8 -- -- 86
2021-01-09 22:00:00 9.2 9 Sudoeste 18 Sudoeste 0.2 -- -- 81
2021-01-09 21:00:00 9.4 17 Sur 32 Sudoeste 0.8 -- -- 82
2021-01-09 20:00:00 11.2 14 Sudoeste 25 Sudoeste 0 -- -- 66
2021-01-09 19:00:00 11.1 10 Sudoeste 27 Sudoeste 0 -- -- 68
2021-01-09 18:00:00 12 14 Oeste 32 Oeste 0 -- -- 54
2021-01-09 17:00:00 13.5 8 Sudoeste 18 Oeste 0 -- -- 48
2021-01-09 16:00:00 13.6 12 Sudoeste 23 Sudoeste 0 -- -- 49
2021-01-09 15:00:00 13.5 15 Sudoeste 33 Sudoeste 0 -- -- 50
2021-01-09 14:00:00 13.5 17 Oeste 36 Sudoeste 0 -- -- 51
2021-01-09 13:00:00 12.9 19 Sudoeste 30 Sudoeste 0 -- -- 52
2021-01-09 12:00:00 12.9 17 Sudoeste 38 Sudoeste 0 -- -- 61
2021-01-09 11:00:00 12.4 12 Oeste 40 Sudoeste 0 -- -- 66
2021-01-09 10:00:00 11.8 12 Oeste 33 Sudoeste 0 -- -- 71
2021-01-09 09:00:00 11.3 10 Oeste 29 Sudoeste 0 -- -- 69
2021-01-09 08:00:00 11.8 12 Oeste 26 Sudoeste 0 -- -- 69
2021-01-09 07:00:00 11.7 12 Sudoeste 24 Sudoeste 0 -- -- 73
2021-01-09 06:00:00 12 5 Sudoeste 14 Sur 0 -- -- 74
2021-01-09 05:00:00 11.8 5 Sur 14 Norte 0 -- -- 80
2021-01-09 04:00:00 11.7 4 Nordeste 20 Noroeste 0 -- -- 86
2021-01-09 03:00:00 12 6 Nordeste 17 Nordeste 0 -- -- 88
2021-01-09 02:00:00 12.1 3 Sur 27 Sudoeste 0 -- -- 90
2021-01-09 01:00:00 12.9 16 Sudoeste 33 Sudeste 0.2 -- -- 93
2021-01-09 00:00:00 12 15 Sudeste 38 Este 13 -- -- 94
2021-01-08 23:00:00 12.2 16 Sudeste 50 Sudeste 2.6 -- -- 91
2021-01-08 22:00:00 12.6 18 Este 46 Este 0.6 -- -- 88
2021-01-08 21:00:00 12.7 18 Sudeste 46 Este 0 -- -- 88
2021-01-08 20:00:00 12.3 13 Sudeste 35 Sudeste 1.8 -- -- 91
2021-01-08 19:00:00 12.6 17 Sudeste 39 Sudeste 0.2 -- -- 89
2021-01-08 18:00:00 12.9 11 Sudeste 32 Sudeste 0 -- -- 87
2021-01-08 17:00:00 13.5 13 Este 38 Este 0 -- -- 82
2021-01-08 16:00:00 13 16 Este 43 Este 0.2 -- -- 89
2021-01-08 15:00:00 11.9 15 Este 36 Sudeste 2 -- -- 94
2021-01-08 14:00:00 12 13 Este 39 Sudeste 1.4 -- -- 92
2021-01-08 13:00:00 12 20 Sudeste 40 Sudeste 0.4 -- -- 92
2021-01-08 12:00:00 11.9 14 Sudeste 44 Sudeste 0.8 -- -- 92
2021-01-08 11:00:00 11.4 15 Sudeste 39 Sudeste 0.4 -- -- 95
2021-01-08 10:00:00 11.4 14 Sudeste 35 Sudeste 1.2 -- -- 95
2021-01-08 09:00:00 11.3 13 Sudeste 31 Sudeste 0.2 -- -- 96
2021-01-08 08:00:00 11.2 8 Sudeste 23 Este 3.4 -- -- 98
2021-01-08 07:00:00 10 5 Este 18 Oeste 2.8 -- -- 98
2021-01-08 06:00:00 10.2 3 Nordeste 7 Noroeste 2.2 -- -- 98
2021-01-08 05:00:00 10.3 2 Norte 8 Noroeste 1 -- -- 98
2021-01-08 04:00:00 10.3 2 Oeste 8 Noroeste 1.2 -- -- 97
2021-01-08 03:00:00 10.2 4 Norte 8 Norte 2.2 -- -- 97
2021-01-08 02:00:00 10.2 3 Sudeste 6 Este 0.2 -- -- 97
2021-01-08 01:00:00 10 0 Calma 6 Norte 3.6 -- -- 97
2021-01-08 00:00:00 10 3 Norte 6 Norte 3.8 -- -- 97
2021-01-07 23:00:00 10.2 0 Calma 14 Norte 2.8 -- -- 97
2021-01-07 22:00:00 10.7 3 Sur 10 Nordeste 1.2 -- -- 97
2021-01-07 21:00:00 10.7 4 Sudeste 10 Sudeste 1.2 -- -- 97
2021-01-07 20:00:00 10.9 0 Calma 4 Sur 0.6 -- -- 97
2021-01-07 19:00:00 10.9 0 Calma 6 Norte 0.6 -- -- 97
2021-01-07 18:00:00 11 3 Norte 6 Noroeste 0.8 -- -- 96
2021-01-07 17:00:00 11.1 4 Norte 10 Noroeste 0.8 -- -- 96
2021-01-07 16:00:00 11 6 Norte 15 Noroeste 1 -- -- 96
2021-01-07 15:00:00 11.1 3 Noroeste 4 Noroeste 0.4 -- -- 96
2021-01-07 14:00:00 10.7 2 Sur 13 Noroeste 1.8 -- -- 97
2021-01-07 13:00:00 10 6 Noroeste 17 Noroeste 2.6 -- -- 97
2021-01-07 12:00:00 10.6 6 Sudeste 14 Este 2 -- -- 97
2021-01-07 11:00:00 9.5 3 Noroeste 6 Noroeste 1.4 -- -- 96
2021-01-07 10:00:00 9.1 4 Noroeste 12 Noroeste 1.2 -- -- 96
2021-01-07 09:00:00 8.8 4 Noroeste 9 Noroeste 1 -- -- 96
2021-01-07 08:00:00 8.9 0 Calma 15 Noroeste 0.6 -- -- 95
2021-01-07 07:00:00 8.7 3 Nordeste 7 Norte 0 -- -- 95
2021-01-07 06:00:00 8.4 5 Norte 13 Noroeste 0.2 -- -- 94
2021-01-07 05:00:00 8.5 0 Calma 5 Noroeste 0 -- -- 94
2021-01-07 04:00:00 8.3 0 Calma 17 Noroeste 0.6 -- -- 93
2021-01-07 03:00:00 8.5 5 Norte 13 Noroeste 0.2 -- -- 93
2021-01-07 02:00:00 8.7 3 Norte 12 Norte 1.4 -- -- 93
2021-01-07 01:00:00 8.8 6 Norte 12 Norte 0.4 -- -- 91
2021-01-07 00:00:00 8.8 4 Nordeste 11 Este 1 -- -- 92
2021-01-06 23:00:00 9 2 Nordeste 5 Norte 1.2 -- -- 92
2021-01-06 22:00:00 9.2 0 Calma 4 Sur 1 -- -- 91
2021-01-06 21:00:00 9.6 0 Calma 5 Noroeste 1 -- -- 87
2021-01-06 20:00:00 10.7 2 Este 23 Este 0 -- -- 75
2021-01-06 19:00:00 10.9 3 Este 28 Sudeste 0.4 -- -- 78
2021-01-06 18:00:00 12.4 10 Sudeste 25 Sudeste 0 -- -- 64
2021-01-06 17:00:00 12.5 11 Sudeste 26 Sudeste 0 -- -- 59
2021-01-06 16:00:00 12.5 8 Sudeste 24 Sudeste 0 -- -- 58
2021-01-06 15:00:00 12.7 9 Sudeste 28 Este 0 -- -- 55
2021-01-06 14:00:00 13.1 12 Sudeste 33 Sudeste 0 -- -- 48
2021-01-06 13:00:00 13.1 12 Sudeste 26 Sudeste 0 -- -- 45
2021-01-06 12:00:00 12.6 7 Sudeste 17 Sudeste 0 -- -- 49
2021-01-06 11:00:00 11.8 4 Este 11 Este 0 -- -- 50
2021-01-06 10:00:00 11.4 4 Este 10 Sudeste 0 -- -- 54
2021-01-06 09:00:00 10.5 3 Este 10 Sudeste 0 -- -- 57
2021-01-06 08:00:00 10.4 4 Este 9 Nordeste 0 -- -- 60
2021-01-06 07:00:00 10.4 3 Este 11 Este 0 -- -- 63
2021-01-06 06:00:00 10.8 4 Este 12 Sudeste 0 -- -- 68
2021-01-06 05:00:00 11.1 5 Sudeste 17 Sudeste 0 -- -- 73
2021-01-06 04:00:00 11.1 4 Sudeste 17 Sudeste 0 -- -- 72
2021-01-06 03:00:00 11.1 6 Sudeste 15 Sudeste 0 -- -- 74
2021-01-06 02:00:00 10.1 3 Este 9 Este 0 -- -- 70
2021-01-06 01:00:00 10.6 3 Este 12 Sudeste 0 -- -- 66
2021-01-06 00:00:00 10.8 4 Este 14 Este 0 -- -- 67
2021-01-05 23:00:00 11.2 5 Sudeste 18 Este 0 -- -- 65
2021-01-05 22:00:00 11.3 8 Este 25 Sudeste 0 -- -- 65
2021-01-05 21:00:00 11.4 6 Sudeste 19 Sudeste 0 -- -- 68
2021-01-05 20:00:00 11.8 7 Este 22 Sudeste 0 -- -- 70
2021-01-05 19:00:00 11.7 6 Sudeste 18 Sudeste 0 -- -- 67
2021-01-05 18:00:00 11.9 5 Sudeste 14 Sudeste 0 -- -- 64
2021-01-05 17:00:00 12.9 9 Sudeste 17 Sudeste 0 -- -- 58
2021-01-05 16:00:00 13.3 9 Sur 17 Sur 0 -- -- 54
2021-01-05 15:00:00 14.4 7 Sur 17 Sur 0 -- -- 54
2021-01-05 14:00:00 15.3 9 Sur 17 Sur 0 -- -- 50
2021-01-05 13:00:00 14.1 8 Sur 15 Sudeste 0 -- -- 51
2021-01-05 12:00:00 14.4 8 Sur 16 Sur 0 -- -- 52
2021-01-05 11:00:00 13.4 5 Sur 10 Sudeste 0 -- -- 45
2021-01-05 10:00:00 9.1 4 Norte 11 Norte 0 -- -- 58
2021-01-05 09:00:00 6.9 5 Norte 13 Noroeste 0 -- -- 61
2021-01-05 08:00:00 7.3 6 Norte 14 Norte 0 -- -- 60
2021-01-05 07:00:00 6.4 2 Noroeste 10 Nordeste 0 -- -- 67
2021-01-05 06:00:00 5.9 5 Norte 11 Nordeste 0 -- -- 67
2021-01-05 05:00:00 7.2 4 Nordeste 14 Norte 0 -- -- 61
2021-01-05 04:00:00 7.2 4 Norte 13 Noroeste 0 -- -- 65
2021-01-05 03:00:00 6.8 10 Norte 24 Norte 0 -- -- 63
2021-01-05 02:00:00 8.1 14 Norte 21 Norte 0 -- -- 65
2021-01-05 01:00:00 8 10 Norte 26 Norte 0 -- -- 64
2021-01-05 00:00:00 8.9 14 Norte 27 Noroeste 0 -- -- 60
2021-01-04 23:00:00 8 14 Norte 27 Norte 0 -- -- 62
2021-01-04 22:00:00 7.6 9 Norte 21 Noroeste 0 -- -- 63
2021-01-04 21:00:00 8.2 13 Noroeste 20 Noroeste 0 -- -- 60
2021-01-04 20:00:00 9.2 8 Noroeste 24 Norte 0 -- -- 55
2021-01-04 19:00:00 10.2 16 Noroeste 24 Noroeste 0 -- -- 51
2021-01-04 18:00:00 12.2 15 Noroeste 35 Noroeste 0 -- -- 44
2021-01-04 17:00:00 13.8 22 Noroeste 38 Noroeste 0 -- -- 40
2021-01-04 16:00:00 14.2 30 Noroeste 45 Noroeste 0 -- -- 40
2021-01-04 15:00:00 14.5 29 Noroeste 45 Oeste 0 -- -- 39
2021-01-04 14:00:00 15 26 Noroeste 40 Noroeste 0 -- -- 35
2021-01-04 13:00:00 15 24 Noroeste 40 Noroeste 0 -- -- 32
2021-01-04 12:00:00 14.3 14 Noroeste 25 Oeste 0 -- -- 39
2021-01-04 11:00:00 12.1 14 Oeste 24 Oeste 0 -- -- 50
2021-01-04 10:00:00 8.3 4 Norte 13 Noroeste 0 -- -- 56
2021-01-04 09:00:00 4.3 5 Nordeste 13 Norte 0 -- -- 60
2021-01-04 08:00:00 5.4 9 Norte 15 Norte 0 -- -- 56
2021-01-04 07:00:00 4.7 4 Norte 12 Norte 0 -- -- 55
2021-01-04 06:00:00 5.6 6 Norte 19 Norte 0 -- -- 53
2021-01-04 05:00:00 3.9 5 Norte 15 Nordeste 0 -- -- 58
2021-01-04 04:00:00 3.8 6 Norte 10 Norte 0 -- -- 65
2021-01-04 03:00:00 3.6 3 Norte 7 Norte 0 -- -- 61
2021-01-04 02:00:00 4.5 2 Nordeste 10 Norte 0 -- -- 56
2021-01-04 01:00:00 4.7 3 Norte 12 Norte 0 -- -- 53
2021-01-04 00:00:00 4.1 4 Norte 11 Norte 0 -- -- 51
2021-01-03 23:00:00 4.6 6 Norte 10 Norte 0 -- -- 46
2021-01-03 22:00:00 5.5 4 Norte 18 Noroeste 0 -- -- 47
2021-01-03 21:00:00 8.2 9 Oeste 19 Noroeste 0 -- -- 42
2021-01-03 20:00:00 9 11 Noroeste 28 Noroeste 0 -- -- 38
2021-01-03 19:00:00 9.9 14 Noroeste 29 Noroeste 0 -- -- 33
2021-01-03 18:00:00 12.2 19 Noroeste 34 Noroeste 0 -- -- 27
2021-01-03 17:00:00 14.6 18 Noroeste 34 Noroeste 0 -- -- 23
2021-01-03 16:00:00 15.4 17 Noroeste 32 Noroeste 0 -- -- 24
2021-01-03 15:00:00 15.3 19 Noroeste 37 Noroeste 0 -- -- 24
2021-01-03 14:00:00 15.4 22 Noroeste 36 Noroeste 0 -- -- 23
2021-01-03 13:00:00 15.3 4 Noroeste 13 Sudoeste 0 -- -- 23
2021-01-03 12:00:00 13.6 5 Oeste 12 Noroeste 0 -- -- 25
2021-01-03 11:00:00 11.3 9 Noroeste 13 Noroeste 0 -- -- 32
2021-01-03 10:00:00 6.7 6 Norte 11 Norte 0 -- -- 44
2021-01-03 09:00:00 2.6 4 Nordeste 10 Nordeste 0 -- -- 56
2021-01-03 08:00:00 2.1 4 Norte 10 Norte 0 -- -- 58
2021-01-03 07:00:00 2.7 2 Norte 9 Nordeste 0 -- -- 60
2021-01-03 06:00:00 2.9 0 Calma 8 Nordeste 0 -- -- 62
2021-01-03 05:00:00 4.4 6 Norte 13 Norte 0 -- -- 57
2021-01-03 04:00:00 6.6 5 Norte 27 Oeste 0 -- -- 54
2021-01-03 03:00:00 6.3 11 Noroeste 20 Oeste 0 -- -- 56
2021-01-03 02:00:00 3.9 4 Nordeste 9 Norte 0 -- -- 62
2021-01-03 01:00:00 4.8 3 Nordeste 8 Nordeste 0 -- -- 59
2021-01-03 00:00:00 7.7 12 Noroeste 20 Noroeste 0 -- -- 52
2021-01-02 23:00:00 7.1 9 Noroeste 17 Noroeste 0 -- -- 60
2021-01-02 22:00:00 7.2 11 Noroeste 17 Noroeste 0 -- -- 58
2021-01-02 21:00:00 8.4 13 Noroeste 33 Noroeste 0 -- -- 51
2021-01-02 20:00:00 9.2 20 Noroeste 35 Norte 0 -- -- 44
2021-01-02 19:00:00 9.1 15 Noroeste 32 Noroeste 0 -- -- 46
2021-01-02 18:00:00 10.9 17 Noroeste 35 Noroeste 0 -- -- 40
2021-01-02 17:00:00 12.8 21 Noroeste 40 Noroeste 0 -- -- 32
2021-01-02 16:00:00 13.5 26 Noroeste 42 Noroeste 0 -- -- 31
2021-01-02 15:00:00 13.8 27 Noroeste 42 Noroeste 0 -- -- 30
2021-01-02 14:00:00 14 18 Noroeste 40 Oeste 0 -- -- 32